sensor_id;sensor_type;location;lat;lon;timestamp;temperature;humidity
5560;DHT22;2803;47.916;8.074;2022-12-24T00:00:37;13.10;99.90
5560;DHT22;2803;47.916;8.074;2022-12-24T00:03:03;13.20;99.90
5560;DHT22;2803;47.916;8.074;2022-12-24T00:05:30;13.10;99.90
5560;DHT22;2803;47.916;8.074;2022-12-24T00:07:56;13.00;99.90
5560;DHT22;2803;47.916;8.074;2022-12-24T00:10:23;12.90;99.90
5560;DHT22;2803;47.916;8.074;2022-12-24T00:12:51;12.60;99.90
5560;DHT22;2803;47.916;8.074;2022-12-24T00:15:18;12.80;99.90
5560;DHT22;2803;47.916;8.074;2022-12-24T00:17:44;12.80;99.90
5560;DHT22;2803;47.916;8.074;2022-12-24T00:20:11;12.80;99.90
5560;DHT22;2803;47.916;8.074;2022-12-24T00:22:38;12.40;99.90
5560;DHT22;2803;47.916;8.074;2022-12-24T00:25:05;12.40;99.90
5560;DHT22;2803;47.916;8.074;2022-12-24T00:27:31;11.90;99.90
5560;DHT22;2803;47.916;8.074;2022-12-24T00:29:59;11.60;99.90
5560;DHT22;2803;47.916;8.074;2022-12-24T00:32:26;11.70;99.90
5560;DHT22;2803;47.916;8.074;2022-12-24T00:34:52;12.00;99.90
5560;DHT22;2803;47.916;8.074;2022-12-24T00:37:19;11.90;99.90
5560;DHT22;2803;47.916;8.074;2022-12-24T00:39:46;11.80;99.90
5560;DHT22;2803;47.916;8.074;2022-12-24T00:42:12;11.80;99.90
5560;DHT22;2803;47.916;8.074;2022-12-24T00:44:39;12.00;99.90
5560;DHT22;2803;47.916;8.074;2022-12-24T00:47:07;12.40;99.90
5560;DHT22;2803;47.916;8.074;2022-12-24T00:49:33;12.70;99.90
5560;DHT22;2803;47.916;8.074;2022-12-24T00:52:00;13.00;99.90
5560;DHT22;2803;47.916;8.074;2022-12-24T00:54:27;12.90;99.90
5560;DHT22;2803;47.916;8.074;2022-12-24T00:56:54;12.60;99.90
5560;DHT22;2803;47.916;8.074;2022-12-24T00:59:20;12.70;99.90
5560;DHT22;2803;47.916;8.074;2022-12-24T01:01:47;12.20;99.90
5560;DHT22;2803;47.916;8.074;2022-12-24T01:04:15;12.20;99.90
5560;DHT22;2803;47.916;8.074;2022-12-24T01:06:55;12.20;99.90
5560;DHT22;2803;47.916;8.074;2022-12-24T01:09:22;12.20;99.90
5560;DHT22;2803;47.916;8.074;2022-12-24T01:11:48;12.30;99.90
5560;DHT22;2803;47.916;8.074;2022-12-24T01:14:15;12.50;99.90
5560;DHT22;2803;47.916;8.074;2022-12-24T01:16:42;12.50;99.90
5560;DHT22;2803;47.916;8.074;2022-12-24T01:19:08;12.30;99.90
5560;DHT22;2803;47.916;8.074;2022-12-24T01:21:36;12.50;99.90
5560;DHT22;2803;47.916;8.074;2022-12-24T01:24:03;12.60;99.90
5560;DHT22;2803;47.916;8.074;2022-12-24T01:26:30;12.60;99.90
5560;DHT22;2803;47.916;8.074;2022-12-24T01:28:57;12.50;99.90
5560;DHT22;2803;47.916;8.074;2022-12-24T01:31:24;12.50;99.90
5560;DHT22;2803;47.916;8.074;2022-12-24T01:33:51;12.60;99.90
5560;DHT22;2803;47.916;8.074;2022-12-24T01:36:17;12.40;99.90
5560;DHT22;2803;47.916;8.074;2022-12-24T01:38:45;12.50;99.90
5560;DHT22;2803;47.916;8.074;2022-12-24T01:41:14;12.40;99.90
5560;DHT22;2803;47.916;8.074;2022-12-24T01:43:55;12.40;99.90
5560;DHT22;2803;47.916;8.074;2022-12-24T01:46:25;12.40;99.90
5560;DHT22;2803;47.916;8.074;2022-12-24T01:48:55;12.30;99.90
5560;DHT22;2803;47.916;8.074;2022-12-24T01:51:26;12.50;99.90
5560;DHT22;2803;47.916;8.074;2022-12-24T01:53:58;12.50;99.90
5560;DHT22;2803;47.916;8.074;2022-12-24T01:56:29;12.50;99.90
5560;DHT22;2803;47.916;8.074;2022-12-24T01:58:59;12.50;99.90
5560;DHT22;2803;47.916;8.074;2022-12-24T02:01:27;12.50;99.90
5560;DHT22;2803;47.916;8.074;2022-12-24T02:03:54;12.40;99.90
5560;DHT22;2803;47.916;8.074;2022-12-24T02:06:21;12.30;99.90
5560;DHT22;2803;47.916;8.074;2022-12-24T02:08:48;12.10;99.90
5560;DHT22;2803;47.916;8.074;2022-12-24T02:11:18;12.10;99.90
5560;DHT22;2803;47.916;8.074;2022-12-24T02:13:48;12.30;99.90
5560;DHT22;2803;47.916;8.074;2022-12-24T02:16:23;12.40;99.90
5560;DHT22;2803;47.916;8.074;2022-12-24T02:18:58;12.60;99.90
5560;DHT22;2803;47.916;8.074;2022-12-24T02:21:43;12.60;99.90
5560;DHT22;2803;47.916;8.074;2022-12-24T02:24:21;12.30;99.90
5560;DHT22;2803;47.916;8.074;2022-12-24T02:27:09;12.20;99.90
5560;DHT22;2803;47.916;8.074;2022-12-24T02:29:55;12.10;99.90
5560;DHT22;2803;47.916;8.074;2022-12-24T02:32:30;12.20;99.90
5560;DHT22;2803;47.916;8.074;2022-12-24T02:35:03;11.70;99.90
5560;DHT22;2803;47.916;8.074;2022-12-24T02:37:33;11.80;99.90
5560;DHT22;2803;47.916;8.074;2022-12-24T02:40:07;12.20;99.90
5560;DHT22;2803;47.916;8.074;2022-12-24T02:42:39;12.20;99.90
5560;DHT22;2803;47.916;8.074;2022-12-24T02:45:10;12.40;99.90
5560;DHT22;2803;47.916;8.074;2022-12-24T02:47:38;11.70;99.90
5560;DHT22;2803;47.916;8.074;2022-12-24T02:50:07;11.80;99.90
5560;DHT22;2803;47.916;8.074;2022-12-24T02:52:37;11.40;99.90
5560;DHT22;2803;47.916;8.074;2022-12-24T02:55:06;11.40;99.90
5560;DHT22;2803;47.916;8.074;2022-12-24T02:57:43;11.40;99.90
5560;DHT22;2803;47.916;8.074;2022-12-24T03:00:17;11.90;99.90
5560;DHT22;2803;47.916;8.074;2022-12-24T03:02:55;12.20;99.90
5560;DHT22;2803;47.916;8.074;2022-12-24T03:05:37;11.40;99.90
5560;DHT22;2803;47.916;8.074;2022-12-24T03:08:12;11.70;99.90
5560;DHT22;2803;47.916;8.074;2022-12-24T03:10:46;12.10;99.90
5560;DHT22;2803;47.916;8.074;2022-12-24T03:13:17;12.00;99.90
5560;DHT22;2803;47.916;8.074;2022-12-24T03:15:47;12.00;99.90
5560;DHT22;2803;47.916;8.074;2022-12-24T03:18:17;12.00;99.90
5560;DHT22;2803;47.916;8.074;2022-12-24T03:20:46;12.00;99.90
5560;DHT22;2803;47.916;8.074;2022-12-24T03:23:14;11.70;99.90
5560;DHT22;2803;47.916;8.074;2022-12-24T03:25:42;11.60;99.90
5560;DHT22;2803;47.916;8.074;2022-12-24T03:28:12;11.80;99.90
5560;DHT22;2803;47.916;8.074;2022-12-24T03:30:40;11.70;99.90
5560;DHT22;2803;47.916;8.074;2022-12-24T03:33:08;11.70;99.90
5560;DHT22;2803;47.916;8.074;2022-12-24T03:35:35;11.50;99.90
5560;DHT22;2803;47.916;8.074;2022-12-24T03:38:01;11.30;99.90
5560;DHT22;2803;47.916;8.074;2022-12-24T03:40:28;10.80;99.90
5560;DHT22;2803;47.916;8.074;2022-12-24T03:42:55;11.10;99.90
5560;DHT22;2803;47.916;8.074;2022-12-24T03:45:21;11.40;99.90
5560;DHT22;2803;47.916;8.074;2022-12-24T03:47:48;11.30;99.90
5560;DHT22;2803;47.916;8.074;2022-12-24T03:50:16;11.30;99.90
5560;DHT22;2803;47.916;8.074;2022-12-24T03:52:42;10.80;99.90
5560;DHT22;2803;47.916;8.074;2022-12-24T03:55:09;10.90;99.90
5560;DHT22;2803;47.916;8.074;2022-12-24T03:57:36;11.20;99.90
5560;DHT22;2803;47.916;8.074;2022-12-24T04:00:03;10.80;99.90
5560;DHT22;2803;47.916;8.074;2022-12-24T04:02:30;11.10;99.90
5560;DHT22;2803;47.916;8.074;2022-12-24T04:04:57;11.20;99.90
5560;DHT22;2803;47.916;8.074;2022-12-24T04:07:25;11.30;99.90
5560;DHT22;2803;47.916;8.074;2022-12-24T04:09:51;11.00;99.90
5560;DHT22;2803;47.916;8.074;2022-12-24T04:12:18;11.20;99.90
5560;DHT22;2803;47.916;8.074;2022-12-24T04:14:45;11.60;99.90
5560;DHT22;2803;47.916;8.074;2022-12-24T04:17:11;11.60;99.90
5560;DHT22;2803;47.916;8.074;2022-12-24T04:19:38;11.50;99.90
5560;DHT22;2803;47.916;8.074;2022-12-24T04:22:04;11.50;99.90
5560;DHT22;2803;47.916;8.074;2022-12-24T04:24:32;11.60;99.90
5560;DHT22;2803;47.916;8.074;2022-12-24T04:26:59;11.70;99.90
5560;DHT22;2803;47.916;8.074;2022-12-24T04:29:25;11.60;99.90
5560;DHT22;2803;47.916;8.074;2022-12-24T04:31:52;11.50;99.90
5560;DHT22;2803;47.916;8.074;2022-12-24T04:34:19;11.90;99.90
5560;DHT22;2803;47.916;8.074;2022-12-24T04:36:45;11.90;99.90
5560;DHT22;2803;47.916;8.074;2022-12-24T04:39:12;12.10;99.90
5560;DHT22;2803;47.916;8.074;2022-12-24T04:41:40;12.50;99.90
5560;DHT22;2803;47.916;8.074;2022-12-24T04:44:08;12.70;99.90
5560;DHT22;2803;47.916;8.074;2022-12-24T04:46:35;12.80;99.90
5560;DHT22;2803;47.916;8.074;2022-12-24T04:49:02;12.80;99.90
5560;DHT22;2803;47.916;8.074;2022-12-24T04:51:29;12.70;99.90
5560;DHT22;2803;47.916;8.074;2022-12-24T04:53:56;12.70;99.90
5560;DHT22;2803;47.916;8.074;2022-12-24T04:56:24;12.70;99.90
5560;DHT22;2803;47.916;8.074;2022-12-24T04:58:52;12.40;99.90
5560;DHT22;2803;47.916;8.074;2022-12-24T05:01:20;12.50;99.90
5560;DHT22;2803;47.916;8.074;2022-12-24T05:03:48;12.50;99.90
5560;DHT22;2803;47.916;8.074;2022-12-24T05:06:16;12.60;99.90
5560;DHT22;2803;47.916;8.074;2022-12-24T05:08:44;12.50;99.90
5560;DHT22;2803;47.916;8.074;2022-12-24T05:11:11;12.50;99.90
5560;DHT22;2803;47.916;8.074;2022-12-24T05:13:39;12.50;99.90
5560;DHT22;2803;47.916;8.074;2022-12-24T05:16:07;12.00;99.90
5560;DHT22;2803;47.916;8.074;2022-12-24T05:18:34;12.00;99.90
5560;DHT22;2803;47.916;8.074;2022-12-24T05:21:01;11.90;99.90
5560;DHT22;2803;47.916;8.074;2022-12-24T05:23:27;12.10;99.90
5560;DHT22;2803;47.916;8.074;2022-12-24T05:26:14;12.00;99.90
5560;DHT22;2803;47.916;8.074;2022-12-24T05:28:48;12.20;99.90
5560;DHT22;2803;47.916;8.074;2022-12-24T05:31:16;11.80;99.90
5560;DHT22;2803;47.916;8.074;2022-12-24T05:33:43;11.80;99.90
5560;DHT22;2803;47.916;8.074;2022-12-24T05:36:10;11.80;99.90
5560;DHT22;2803;47.916;8.074;2022-12-24T05:38:37;11.90;99.90
5560;DHT22;2803;47.916;8.074;2022-12-24T05:41:04;12.10;99.90
5560;DHT22;2803;47.916;8.074;2022-12-24T05:43:31;11.60;99.90
5560;DHT22;2803;47.916;8.074;2022-12-24T05:45:58;11.70;99.90
5560;DHT22;2803;47.916;8.074;2022-12-24T05:48:26;12.10;99.90
5560;DHT22;2803;47.916;8.074;2022-12-24T05:50:53;12.20;99.90
5560;DHT22;2803;47.916;8.074;2022-12-24T05:53:20;12.40;99.90
5560;DHT22;2803;47.916;8.074;2022-12-24T05:55:47;12.30;99.90
5560;DHT22;2803;47.916;8.074;2022-12-24T05:58:13;12.20;99.90
5560;DHT22;2803;47.916;8.074;2022-12-24T06:00:41;11.90;99.90
5560;DHT22;2803;47.916;8.074;2022-12-24T06:03:07;12.20;99.90
5560;DHT22;2803;47.916;8.074;2022-12-24T06:05:35;12.20;99.90
5560;DHT22;2803;47.916;8.074;2022-12-24T06:08:03;11.80;99.90
5560;DHT22;2803;47.916;8.074;2022-12-24T06:10:30;12.00;99.90
5560;DHT22;2803;47.916;8.074;2022-12-24T06:12:56;11.90;99.90
5560;DHT22;2803;47.916;8.074;2022-12-24T06:15:23;12.10;99.90
5560;DHT22;2803;47.916;8.074;2022-12-24T06:17:49;12.20;99.90
5560;DHT22;2803;47.916;8.074;2022-12-24T06:20:16;11.70;99.90
5560;DHT22;2803;47.916;8.074;2022-12-24T06:22:44;11.70;99.90
5560;DHT22;2803;47.916;8.074;2022-12-24T06:25:11;12.00;99.90
5560;DHT22;2803;47.916;8.074;2022-12-24T06:27:37;12.20;99.90
5560;DHT22;2803;47.916;8.074;2022-12-24T06:30:05;11.80;99.90
5560;DHT22;2803;47.916;8.074;2022-12-24T06:32:31;11.60;99.90
5560;DHT22;2803;47.916;8.074;2022-12-24T06:34:58;11.40;99.90
5560;DHT22;2803;47.916;8.074;2022-12-24T06:37:25;11.50;99.90
5560;DHT22;2803;47.916;8.074;2022-12-24T06:39:52;11.50;99.90
5560;DHT22;2803;47.916;8.074;2022-12-24T06:42:19;11.50;99.90
5560;DHT22;2803;47.916;8.074;2022-12-24T06:44:46;11.30;99.90
5560;DHT22;2803;47.916;8.074;2022-12-24T06:47:12;11.50;99.90
5560;DHT22;2803;47.916;8.074;2022-12-24T06:49:39;11.70;99.90
5560;DHT22;2803;47.916;8.074;2022-12-24T06:52:05;11.20;99.90
5560;DHT22;2803;47.916;8.074;2022-12-24T06:54:32;11.40;99.90
5560;DHT22;2803;47.916;8.074;2022-12-24T06:57:00;11.40;99.90
5560;DHT22;2803;47.916;8.074;2022-12-24T06:59:26;11.80;99.90
5560;DHT22;2803;47.916;8.074;2022-12-24T07:01:53;12.20;99.90
5560;DHT22;2803;47.916;8.074;2022-12-24T07:04:20;12.10;99.90
5560;DHT22;2803;47.916;8.074;2022-12-24T07:06:46;11.90;99.90
5560;DHT22;2803;47.916;8.074;2022-12-24T07:09:13;11.90;99.90
5560;DHT22;2803;47.916;8.074;2022-12-24T07:11:40;11.70;99.90
5560;DHT22;2803;47.916;8.074;2022-12-24T07:14:08;11.90;99.90
5560;DHT22;2803;47.916;8.074;2022-12-24T07:16:34;12.00;99.90
5560;DHT22;2803;47.916;8.074;2022-12-24T07:19:01;11.50;99.90
5560;DHT22;2803;47.916;8.074;2022-12-24T07:21:27;11.00;99.90
5560;DHT22;2803;47.916;8.074;2022-12-24T07:23:54;11.00;99.90
5560;DHT22;2803;47.916;8.074;2022-12-24T07:26:21;11.30;99.90
5560;DHT22;2803;47.916;8.074;2022-12-24T07:28:47;11.40;99.90
5560;DHT22;2803;47.916;8.074;2022-12-24T07:31:15;11.60;99.90
5560;DHT22;2803;47.916;8.074;2022-12-24T07:33:44;11.20;99.90
5560;DHT22;2803;47.916;8.074;2022-12-24T07:36:17;11.50;99.90
5560;DHT22;2803;47.916;8.074;2022-12-24T07:38:44;11.80;99.90
5560;DHT22;2803;47.916;8.074;2022-12-24T07:41:11;11.90;99.90
5560;DHT22;2803;47.916;8.074;2022-12-24T07:43:38;12.20;99.90
5560;DHT22;2803;47.916;8.074;2022-12-24T07:46:05;12.20;99.90
5560;DHT22;2803;47.916;8.074;2022-12-24T07:48:33;12.30;99.90
5560;DHT22;2803;47.916;8.074;2022-12-24T07:51:00;12.20;99.90
5560;DHT22;2803;47.916;8.074;2022-12-24T07:53:28;12.10;99.90
5560;DHT22;2803;47.916;8.074;2022-12-24T07:55:55;11.80;99.90
5560;DHT22;2803;47.916;8.074;2022-12-24T07:58:22;11.90;99.90
5560;DHT22;2803;47.916;8.074;2022-12-24T08:00:54;11.80;99.90
5560;DHT22;2803;47.916;8.074;2022-12-24T08:03:21;12.00;99.90
5560;DHT22;2803;47.916;8.074;2022-12-24T08:05:49;11.80;99.90
5560;DHT22;2803;47.916;8.074;2022-12-24T08:08:17;11.60;99.90
5560;DHT22;2803;47.916;8.074;2022-12-24T08:10:44;11.20;99.90
5560;DHT22;2803;47.916;8.074;2022-12-24T08:13:12;11.20;99.90
5560;DHT22;2803;47.916;8.074;2022-12-24T08:15:38;11.30;99.90
5560;DHT22;2803;47.916;8.074;2022-12-24T08:18:05;11.90;99.90
5560;DHT22;2803;47.916;8.074;2022-12-24T08:20:31;12.00;99.90
5560;DHT22;2803;47.916;8.074;2022-12-24T08:22:59;12.10;99.90
5560;DHT22;2803;47.916;8.074;2022-12-24T08:25:26;12.10;99.90
5560;DHT22;2803;47.916;8.074;2022-12-24T08:27:52;11.90;99.90
5560;DHT22;2803;47.916;8.074;2022-12-24T08:30:19;11.80;99.90
5560;DHT22;2803;47.916;8.074;2022-12-24T08:32:46;11.80;99.90
5560;DHT22;2803;47.916;8.074;2022-12-24T08:35:12;11.90;99.90
5560;DHT22;2803;47.916;8.074;2022-12-24T08:37:39;11.60;99.90
5560;DHT22;2803;47.916;8.074;2022-12-24T08:40:08;11.60;99.90
5560;DHT22;2803;47.916;8.074;2022-12-24T08:42:34;11.70;99.90
5560;DHT22;2803;47.916;8.074;2022-12-24T08:45:01;11.60;99.90
5560;DHT22;2803;47.916;8.074;2022-12-24T08:47:27;11.60;99.90
5560;DHT22;2803;47.916;8.074;2022-12-24T08:49:54;11.30;99.90
5560;DHT22;2803;47.916;8.074;2022-12-24T08:52:21;11.70;99.90
5560;DHT22;2803;47.916;8.074;2022-12-24T08:54:47;11.90;99.90
5560;DHT22;2803;47.916;8.074;2022-12-24T08:57:15;11.50;99.90
5560;DHT22;2803;47.916;8.074;2022-12-24T08:59:42;11.80;99.90
5560;DHT22;2803;47.916;8.074;2022-12-24T09:02:08;11.90;99.90
5560;DHT22;2803;47.916;8.074;2022-12-24T09:04:36;11.90;99.90
5560;DHT22;2803;47.916;8.074;2022-12-24T09:07:05;11.60;99.90
5560;DHT22;2803;47.916;8.074;2022-12-24T09:09:31;11.30;99.90
5560;DHT22;2803;47.916;8.074;2022-12-24T09:11:58;11.60;99.90
5560;DHT22;2803;47.916;8.074;2022-12-24T09:14:26;11.70;99.90
5560;DHT22;2803;47.916;8.074;2022-12-24T09:16:53;11.90;99.90
5560;DHT22;2803;47.916;8.074;2022-12-24T09:19:19;11.70;99.90
5560;DHT22;2803;47.916;8.074;2022-12-24T09:21:46;11.90;99.90
5560;DHT22;2803;47.916;8.074;2022-12-24T09:24:13;11.80;99.90
5560;DHT22;2803;47.916;8.074;2022-12-24T09:26:40;11.60;99.90
5560;DHT22;2803;47.916;8.074;2022-12-24T09:29:08;11.60;99.90
5560;DHT22;2803;47.916;8.074;2022-12-24T09:31:36;11.70;99.90
5560;DHT22;2803;47.916;8.074;2022-12-24T09:34:03;11.90;99.90
5560;DHT22;2803;47.916;8.074;2022-12-24T09:36:30;12.60;99.90
5560;DHT22;2803;47.916;8.074;2022-12-24T09:38:56;12.50;99.90
5560;DHT22;2803;47.916;8.074;2022-12-24T09:41:34;12.50;99.90
5560;DHT22;2803;47.916;8.074;2022-12-24T09:44:07;12.60;99.90
5560;DHT22;2803;47.916;8.074;2022-12-24T09:46:41;12.70;99.90
5560;DHT22;2803;47.916;8.074;2022-12-24T09:49:12;12.60;99.90
5560;DHT22;2803;47.916;8.074;2022-12-24T09:51:43;12.40;99.90
5560;DHT22;2803;47.916;8.074;2022-12-24T09:54:16;11.90;99.90
5560;DHT22;2803;47.916;8.074;2022-12-24T09:56:45;12.20;99.90
5560;DHT22;2803;47.916;8.074;2022-12-24T09:59:15;12.30;99.90
5560;DHT22;2803;47.916;8.074;2022-12-24T10:01:52;12.40;99.90
5560;DHT22;2803;47.916;8.074;2022-12-24T10:04:21;12.70;99.90
5560;DHT22;2803;47.916;8.074;2022-12-24T10:06:53;12.30;99.90
5560;DHT22;2803;47.916;8.074;2022-12-24T10:09:27;12.00;99.90
5560;DHT22;2803;47.916;8.074;2022-12-24T10:12:00;12.10;99.90
5560;DHT22;2803;47.916;8.074;2022-12-24T10:14:42;12.20;99.90
5560;DHT22;2803;47.916;8.074;2022-12-24T10:17:23;12.40;99.90
5560;DHT22;2803;47.916;8.074;2022-12-24T10:20:03;12.70;99.90
5560;DHT22;2803;47.916;8.074;2022-12-24T10:22:43;12.70;99.90
5560;DHT22;2803;47.916;8.074;2022-12-24T10:25:17;12.70;99.90
5560;DHT22;2803;47.916;8.074;2022-12-24T10:27:47;12.50;99.90
5560;DHT22;2803;47.916;8.074;2022-12-24T10:30:15;12.60;99.90
5560;DHT22;2803;47.916;8.074;2022-12-24T10:32:46;12.60;99.90
5560;DHT22;2803;47.916;8.074;2022-12-24T10:35:19;12.50;99.90
5560;DHT22;2803;47.916;8.074;2022-12-24T10:37:49;12.90;99.90
5560;DHT22;2803;47.916;8.074;2022-12-24T10:40:24;13.00;99.90
5560;DHT22;2803;47.916;8.074;2022-12-24T10:42:51;12.60;99.90
5560;DHT22;2803;47.916;8.074;2022-12-24T10:45:21;12.80;99.90
5560;DHT22;2803;47.916;8.074;2022-12-24T10:47:53;13.10;99.90
5560;DHT22;2803;47.916;8.074;2022-12-24T10:50:26;13.20;99.90
5560;DHT22;2803;47.916;8.074;2022-12-24T10:53:01;12.90;99.90
5560;DHT22;2803;47.916;8.074;2022-12-24T10:55:31;13.40;99.90
5560;DHT22;2803;47.916;8.074;2022-12-24T10:58:00;13.80;99.90
5560;DHT22;2803;47.916;8.074;2022-12-24T11:00:28;13.40;99.90
5560;DHT22;2803;47.916;8.074;2022-12-24T11:03:21;13.00;99.90
5560;DHT22;2803;47.916;8.074;2022-12-24T11:06:00;13.10;99.90
5560;DHT22;2803;47.916;8.074;2022-12-24T11:08:26;13.20;99.90
5560;DHT22;2803;47.916;8.074;2022-12-24T11:10:55;13.60;99.90
5560;DHT22;2803;47.916;8.074;2022-12-24T11:13:24;13.90;99.90
5560;DHT22;2803;47.916;8.074;2022-12-24T11:16:02;14.10;99.90
5560;DHT22;2803;47.916;8.074;2022-12-24T11:18:31;14.00;99.90
5560;DHT22;2803;47.916;8.074;2022-12-24T11:20:58;13.90;99.90
5560;DHT22;2803;47.916;8.074;2022-12-24T11:23:26;13.90;99.90
5560;DHT22;2803;47.916;8.074;2022-12-24T11:25:55;13.90;99.90
5560;DHT22;2803;47.916;8.074;2022-12-24T11:28:24;14.40;99.90
5560;DHT22;2803;47.916;8.074;2022-12-24T11:30:57;14.50;99.90
5560;DHT22;2803;47.916;8.074;2022-12-24T11:33:25;14.20;99.90
5560;DHT22;2803;47.916;8.074;2022-12-24T11:35:56;14.10;99.90
5560;DHT22;2803;47.916;8.074;2022-12-24T11:38:27;14.40;99.90
5560;DHT22;2803;47.916;8.074;2022-12-24T11:41:00;14.70;99.90
5560;DHT22;2803;47.916;8.074;2022-12-24T11:43:35;14.90;99.90
5560;DHT22;2803;47.916;8.074;2022-12-24T11:46:13;14.70;99.90
5560;DHT22;2803;47.916;8.074;2022-12-24T11:48:40;14.60;99.90
5560;DHT22;2803;47.916;8.074;2022-12-24T11:51:20;14.70;99.90
5560;DHT22;2803;47.916;8.074;2022-12-24T11:53:49;13.90;99.90
5560;DHT22;2803;47.916;8.074;2022-12-24T11:56:27;14.20;99.90
5560;DHT22;2803;47.916;8.074;2022-12-24T11:58:58;14.60;99.90
5560;DHT22;2803;47.916;8.074;2022-12-24T12:01:32;14.30;99.90
5560;DHT22;2803;47.916;8.074;2022-12-24T12:04:02;14.10;99.90
5560;DHT22;2803;47.916;8.074;2022-12-24T12:06:36;13.50;99.90
5560;DHT22;2803;47.916;8.074;2022-12-24T12:09:06;13.60;99.90
5560;DHT22;2803;47.916;8.074;2022-12-24T12:11:39;13.70;99.90
5560;DHT22;2803;47.916;8.074;2022-12-24T12:14:13;13.80;99.90
5560;DHT22;2803;47.916;8.074;2022-12-24T12:16:47;14.10;99.90
5560;DHT22;2803;47.916;8.074;2022-12-24T12:19:32;14.00;99.90
5560;DHT22;2803;47.916;8.074;2022-12-24T12:22:06;13.20;99.90
5560;DHT22;2803;47.916;8.074;2022-12-24T12:24:42;13.20;99.90
5560;DHT22;2803;47.916;8.074;2022-12-24T12:27:18;13.10;99.90
5560;DHT22;2803;47.916;8.074;2022-12-24T12:29:48;13.10;99.90
5560;DHT22;2803;47.916;8.074;2022-12-24T12:32:26;13.50;99.90
5560;DHT22;2803;47.916;8.074;2022-12-24T12:34:58;13.90;99.90
5560;DHT22;2803;47.916;8.074;2022-12-24T12:37:33;13.80;99.90
5560;DHT22;2803;47.916;8.074;2022-12-24T12:40:01;13.70;99.90
5560;DHT22;2803;47.916;8.074;2022-12-24T12:42:30;13.80;99.90
5560;DHT22;2803;47.916;8.074;2022-12-24T12:45:09;13.90;99.90
5560;DHT22;2803;47.916;8.074;2022-12-24T12:47:51;14.10;99.90
5560;DHT22;2803;47.916;8.074;2022-12-24T12:50:27;13.10;99.90
5560;DHT22;2803;47.916;8.074;2022-12-24T12:53:10;13.10;99.90
5560;DHT22;2803;47.916;8.074;2022-12-24T12:55:48;13.10;99.90
5560;DHT22;2803;47.916;8.074;2022-12-24T12:58:19;13.30;99.90
5560;DHT22;2803;47.916;8.074;2022-12-24T13:00:52;13.60;99.90
5560;DHT22;2803;47.916;8.074;2022-12-24T13:03:42;13.20;99.90
5560;DHT22;2803;47.916;8.074;2022-12-24T13:06:30;13.60;99.90
5560;DHT22;2803;47.916;8.074;2022-12-24T13:09:18;13.90;99.90
5560;DHT22;2803;47.916;8.074;2022-12-24T13:11:59;13.90;99.90
5560;DHT22;2803;47.916;8.074;2022-12-24T13:17:35;14.10;99.90
5560;DHT22;2803;47.916;8.074;2022-12-24T13:20:19;14.30;99.90
5560;DHT22;2803;47.916;8.074;2022-12-24T13:22:49;14.60;99.90
5560;DHT22;2803;47.916;8.074;2022-12-24T13:25:23;14.70;99.90
5560;DHT22;2803;47.916;8.074;2022-12-24T13:27:52;14.70;99.90
5560;DHT22;2803;47.916;8.074;2022-12-24T13:30:35;14.70;99.90
5560;DHT22;2803;47.916;8.074;2022-12-24T13:33:02;14.40;99.90
5560;DHT22;2803;47.916;8.074;2022-12-24T13:35:35;14.60;99.90
5560;DHT22;2803;47.916;8.074;2022-12-24T13:38:28;14.70;99.90
5560;DHT22;2803;47.916;8.074;2022-12-24T13:44:07;14.50;99.90
5560;DHT22;2803;47.916;8.074;2022-12-24T13:46:55;14.70;99.90
5560;DHT22;2803;47.916;8.074;2022-12-24T13:49:29;14.70;99.90
5560;DHT22;2803;47.916;8.074;2022-12-24T13:52:06;14.70;99.90
5560;DHT22;2803;47.916;8.074;2022-12-24T13:54:35;14.70;99.90
5560;DHT22;2803;47.916;8.074;2022-12-24T13:57:24;14.70;99.90
5560;DHT22;2803;47.916;8.074;2022-12-24T13:59:56;14.60;99.90
5560;DHT22;2803;47.916;8.074;2022-12-24T14:02:24;14.60;99.90
5560;DHT22;2803;47.916;8.074;2022-12-24T14:04:52;14.60;99.90
5560;DHT22;2803;47.916;8.074;2022-12-24T14:07:19;14.60;99.90
5560;DHT22;2803;47.916;8.074;2022-12-24T14:09:48;14.60;99.90
5560;DHT22;2803;47.916;8.074;2022-12-24T14:12:44;14.70;99.90
5560;DHT22;2803;47.916;8.074;2022-12-24T14:18:07;14.50;99.90
5560;DHT22;2803;47.916;8.074;2022-12-24T14:20:35;14.40;99.90
5560;DHT22;2803;47.916;8.074;2022-12-24T14:23:03;14.40;99.90
5560;DHT22;2803;47.916;8.074;2022-12-24T14:25:30;14.40;99.90
5560;DHT22;2803;47.916;8.074;2022-12-24T14:28:03;14.30;99.90
5560;DHT22;2803;47.916;8.074;2022-12-24T14:30:30;14.30;99.90
5560;DHT22;2803;47.916;8.074;2022-12-24T14:32:57;14.40;99.90
5560;DHT22;2803;47.916;8.074;2022-12-24T14:35:25;14.30;99.90
5560;DHT22;2803;47.916;8.074;2022-12-24T14:37:57;14.30;99.90
5560;DHT22;2803;47.916;8.074;2022-12-24T14:40:28;14.30;99.90
5560;DHT22;2803;47.916;8.074;2022-12-24T14:43:00;14.20;99.90
5560;DHT22;2803;47.916;8.074;2022-12-24T14:45:32;14.20;99.90
5560;DHT22;2803;47.916;8.074;2022-12-24T14:48:05;14.20;99.90
5560;DHT22;2803;47.916;8.074;2022-12-24T14:50:43;14.20;99.90
5560;DHT22;2803;47.916;8.074;2022-12-24T14:53:22;14.10;99.90
5560;DHT22;2803;47.916;8.074;2022-12-24T14:55:51;14.20;99.90
5560;DHT22;2803;47.916;8.074;2022-12-24T14:58:23;14.20;99.90
5560;DHT22;2803;47.916;8.074;2022-12-24T15:00:52;14.10;99.90
5560;DHT22;2803;47.916;8.074;2022-12-24T15:03:21;14.10;99.90
5560;DHT22;2803;47.916;8.074;2022-12-24T15:05:50;14.00;99.90
5560;DHT22;2803;47.916;8.074;2022-12-24T15:08:22;14.00;99.90
5560;DHT22;2803;47.916;8.074;2022-12-24T15:10:52;13.90;99.90
5560;DHT22;2803;47.916;8.074;2022-12-24T15:13:26;13.90;99.90
5560;DHT22;2803;47.916;8.074;2022-12-24T15:15:55;13.90;99.90
5560;DHT22;2803;47.916;8.074;2022-12-24T15:18:24;13.90;99.90
5560;DHT22;2803;47.916;8.074;2022-12-24T15:20:53;13.90;99.90
5560;DHT22;2803;47.916;8.074;2022-12-24T15:23:26;13.90;99.90
5560;DHT22;2803;47.916;8.074;2022-12-24T15:26:06;13.90;99.90
5560;DHT22;2803;47.916;8.074;2022-12-24T15:28:37;13.90;99.90
5560;DHT22;2803;47.916;8.074;2022-12-24T15:31:07;14.00;99.90
5560;DHT22;2803;47.916;8.074;2022-12-24T15:33:34;13.90;99.90
5560;DHT22;2803;47.916;8.074;2022-12-24T15:36:02;13.50;99.90
5560;DHT22;2803;47.916;8.074;2022-12-24T15:38:31;13.60;99.90
5560;DHT22;2803;47.916;8.074;2022-12-24T15:40:59;13.60;99.90
5560;DHT22;2803;47.916;8.074;2022-12-24T15:43:29;13.50;99.90
5560;DHT22;2803;47.916;8.074;2022-12-24T15:45:59;13.30;99.90
5560;DHT22;2803;47.916;8.074;2022-12-24T15:48:28;13.00;99.90
5560;DHT22;2803;47.916;8.074;2022-12-24T15:50:57;13.20;99.90
5560;DHT22;2803;47.916;8.074;2022-12-24T15:53:27;13.30;99.90
5560;DHT22;2803;47.916;8.074;2022-12-24T15:56:05;13.30;99.90
5560;DHT22;2803;47.916;8.074;2022-12-24T15:58:33;13.30;99.90
5560;DHT22;2803;47.916;8.074;2022-12-24T16:01:17;13.40;99.90
5560;DHT22;2803;47.916;8.074;2022-12-24T16:03:55;13.40;99.90
5560;DHT22;2803;47.916;8.074;2022-12-24T16:06:22;13.60;99.90
5560;DHT22;2803;47.916;8.074;2022-12-24T16:08:49;13.50;99.90
5560;DHT22;2803;47.916;8.074;2022-12-24T16:11:17;13.40;99.90
5560;DHT22;2803;47.916;8.074;2022-12-24T16:14:00;13.30;99.90
5560;DHT22;2803;47.916;8.074;2022-12-24T16:16:33;13.10;99.90
5560;DHT22;2803;47.916;8.074;2022-12-24T16:19:01;13.10;99.90
5560;DHT22;2803;47.916;8.074;2022-12-24T16:21:31;12.90;99.90
5560;DHT22;2803;47.916;8.074;2022-12-24T16:24:04;12.90;99.90
5560;DHT22;2803;47.916;8.074;2022-12-24T16:26:32;12.70;99.90
5560;DHT22;2803;47.916;8.074;2022-12-24T16:28:59;12.60;99.90